createdAt,value
2022-10-17T00:00:35.054Z,14.75
2022-10-17T00:03:02.757Z,14.73
2022-10-17T00:05:30.393Z,14.72
2022-10-17T00:07:58.089Z,14.71
2022-10-17T00:10:25.745Z,14.71
2022-10-17T00:12:53.718Z,14.71
2022-10-17T00:15:23.297Z,14.70
2022-10-17T00:17:51.177Z,14.67
2022-10-17T00:20:19.257Z,14.66
2022-10-17T00:22:46.965Z,14.65
2022-10-17T00:25:14.686Z,14.61
2022-10-17T00:27:43.060Z,14.61
2022-10-17T00:30:14.048Z,14.60
2022-10-17T00:32:43.238Z,14.58
2022-10-17T00:35:11.368Z,14.58
2022-10-17T00:37:39.704Z,14.58
2022-10-17T00:40:08.965Z,14.57
2022-10-17T00:42:37.014Z,14.58
2022-10-17T00:45:14.025Z,14.58
2022-10-17T00:47:45.110Z,14.58
2022-10-17T00:50:14.343Z,14.59
2022-10-17T00:52:42.776Z,14.58
2022-10-17T00:55:15.715Z,14.60
2022-10-17T00:57:45.157Z,14.61
2022-10-17T01:00:13.605Z,14.58
2022-10-17T01:02:41.297Z,14.59
2022-10-17T01:05:11.736Z,14.59
2022-10-17T01:07:42.377Z,14.59
2022-10-17T01:10:11.814Z,14.56
2022-10-17T01:12:49.244Z,14.54
2022-10-17T01:15:25.861Z,14.51
2022-10-17T01:18:05.598Z,14.50
2022-10-17T01:21:23.719Z,14.49
2022-10-17T01:24:34.324Z,14.49
2022-10-17T01:27:26.925Z,14.48
2022-10-17T01:30:12.031Z,14.49
2022-10-17T01:32:46.768Z,14.48
2022-10-17T01:35:21.182Z,14.48
2022-10-17T01:37:54.718Z,14.50
2022-10-17T01:40:26.937Z,14.49
2022-10-17T01:42:59.870Z,14.48
2022-10-17T01:45:32.628Z,14.46
2022-10-17T01:48:09.421Z,14.45
2022-10-17T01:50:42.680Z,14.45
2022-10-17T01:53:15.573Z,14.45
2022-10-17T01:55:47.341Z,14.46
2022-10-17T01:58:20.940Z,14.44
2022-10-17T02:00:50.617Z,14.44
2022-10-17T02:03:21.767Z,14.42
2022-10-17T02:05:49.780Z,14.39
2022-10-17T02:08:27.268Z,14.38
2022-10-17T02:10:59.201Z,14.35
2022-10-17T02:13:42.110Z,14.34
2022-10-17T02:16:17.232Z,14.34
2022-10-17T02:19:13.396Z,14.34
2022-10-17T02:21:51.468Z,14.33
2022-10-17T02:24:28.064Z,14.33
2022-10-17T02:27:05.113Z,14.34
2022-10-17T02:29:37.732Z,14.33
2022-10-17T02:32:09.763Z,14.35
2022-10-17T02:34:43.450Z,14.35
2022-10-17T02:37:14.001Z,14.35
2022-10-17T02:39:43.244Z,14.36
2022-10-17T02:42:13.386Z,14.37
2022-10-17T02:44:44.873Z,14.36
2022-10-17T02:47:17.919Z,14.36
2022-10-17T02:49:51.749Z,14.36
2022-10-17T02:52:28.147Z,14.35
2022-10-17T02:55:01.486Z,14.35
2022-10-17T02:57:32.933Z,14.35
2022-10-17T03:00:03.889Z,14.37
2022-10-17T03:02:39.775Z,14.37
2022-10-17T03:05:10.548Z,14.37
2022-10-17T03:07:38.203Z,14.37
2022-10-17T03:10:06.880Z,14.38
2022-10-17T03:12:34.509Z,14.38
2022-10-17T03:15:02.233Z,14.40
2022-10-17T03:17:29.872Z,14.41
2022-10-17T03:19:57.529Z,14.44
2022-10-17T03:22:26.784Z,14.44
2022-10-17T03:24:54.568Z,14.46
2022-10-17T03:27:22.224Z,14.48
2022-10-17T03:29:49.867Z,14.49
2022-10-17T03:32:17.535Z,14.51
2022-10-17T03:34:45.127Z,14.52
2022-10-17T03:37:12.772Z,14.54
2022-10-17T03:39:41.769Z,14.57
2022-10-17T03:42:09.369Z,14.62
2022-10-17T03:44:36.980Z,14.68
2022-10-17T03:47:04.609Z,14.73
2022-10-17T03:49:32.229Z,14.77
2022-10-17T03:51:59.834Z,14.84
2022-10-17T03:54:27.448Z,14.88
2022-10-17T03:59:25.002Z,14.96
2022-10-17T04:01:52.624Z,14.97
2022-10-17T04:04:20.255Z,15.00
2022-10-17T04:06:47.904Z,15.00
2022-10-17T04:09:15.564Z,15.01
2022-10-17T04:11:43.269Z,15.01
2022-10-17T04:14:12.452Z,15.02
2022-10-17T04:16:40.077Z,15.04
2022-10-17T04:19:07.694Z,15.03
2022-10-17T04:21:35.317Z,15.03
2022-10-17T04:24:03.000Z,15.04
2022-10-17T04:26:30.614Z,15.05
2022-10-17T04:28:58.270Z,15.04
2022-10-17T04:31:27.260Z,15.04
2022-10-17T04:33:54.872Z,15.02
2022-10-17T04:36:23.317Z,15.03
2022-10-17T04:38:51.000Z,15.03
2022-10-17T04:41:19.563Z,15.04
2022-10-17T04:43:50.258Z,15.05
2022-10-17T04:46:19.470Z,15.04
2022-10-17T04:48:48.422Z,15.05
2022-10-17T04:51:20.593Z,15.05
2022-10-17T04:53:50.851Z,15.06
2022-10-17T04:56:20.216Z,15.07
2022-10-17T04:58:48.841Z,15.07
2022-10-17T05:01:18.388Z,15.10
2022-10-17T05:03:48.064Z,15.13
2022-10-17T05:06:17.786Z,15.15
2022-10-17T05:08:45.963Z,15.17
2022-10-17T05:11:19.162Z,15.18
2022-10-17T05:13:51.332Z,15.20
2022-10-17T05:16:18.974Z,15.21
2022-10-17T05:18:52.932Z,15.25
2022-10-17T05:21:21.713Z,15.25
2022-10-17T05:23:49.463Z,15.26
2022-10-17T05:26:17.150Z,15.27
2022-10-17T05:28:44.847Z,15.29
2022-10-17T05:31:12.593Z,15.34
2022-10-17T05:33:40.833Z,15.32
2022-10-17T05:36:10.509Z,15.35
2022-10-17T05:38:38.172Z,15.38
2022-10-17T05:41:07.086Z,15.40
2022-10-17T05:43:35.133Z,15.41
2022-10-17T05:46:05.151Z,15.43
2022-10-17T05:48:33.113Z,15.43
2022-10-17T05:51:01.673Z,15.46
2022-10-17T05:53:33.716Z,15.46
2022-10-17T05:56:02.817Z,15.48
2022-10-17T06:01:19.116Z,15.49
2022-10-17T06:03:46.784Z,15.47
2022-10-17T06:06:15.785Z,15.46
2022-10-17T06:08:45.573Z,15.45
2022-10-17T06:11:14.285Z,15.46
2022-10-17T06:13:42.275Z,15.46
2022-10-17T06:16:10.404Z,15.43
2022-10-17T06:18:38.103Z,15.46
2022-10-17T06:21:07.593Z,15.45
2022-10-17T06:23:35.284Z,15.45
2022-10-17T06:26:06.739Z,15.45
2022-10-17T06:28:34.821Z,15.45
2022-10-17T06:31:06.455Z,15.46
2022-10-17T06:33:34.116Z,15.48
2022-10-17T06:36:01.934Z,15.49
2022-10-17T06:38:31.969Z,15.53
2022-10-17T06:41:08.198Z,15.52
2022-10-17T06:43:36.078Z,15.54
2022-10-17T06:46:03.703Z,15.57
2022-10-17T06:48:31.449Z,15.59
2022-10-17T06:51:00.977Z,15.63
2022-10-17T06:53:29.673Z,15.64
2022-10-17T06:56:01.362Z,15.66
2022-10-17T06:58:30.761Z,15.67
2022-10-17T07:01:02.135Z,15.69
2022-10-17T07:03:30.263Z,15.72
2022-10-17T07:05:58.768Z,15.75
2022-10-17T07:08:27.290Z,15.77
2022-10-17T07:10:56.848Z,15.79
2022-10-17T07:13:25.447Z,15.80
2022-10-17T07:18:25.995Z,15.83
2022-10-17T07:20:55.027Z,15.85
2022-10-17T07:23:23.267Z,15.86
2022-10-17T07:25:50.908Z,15.87
2022-10-17T07:28:18.716Z,15.90
2022-10-17T07:30:50.626Z,15.93
2022-10-17T07:33:22.682Z,15.91
2022-10-17T07:35:52.534Z,15.93
2022-10-17T07:38:20.192Z,15.94
2022-10-17T07:40:54.339Z,15.94
2022-10-17T07:43:22.002Z,15.96
2022-10-17T07:45:49.669Z,15.97
2022-10-17T07:48:17.379Z,15.97
2022-10-17T07:50:46.684Z,15.99
2022-10-17T07:53:14.488Z,16.01
2022-10-17T07:55:42.544Z,16.04
2022-10-17T07:58:10.593Z,16.01
2022-10-17T08:00:38.705Z,16.02
2022-10-17T08:03:07.405Z,16.02
2022-10-17T08:05:35.516Z,16.02
2022-10-17T08:08:04.611Z,16.01
2022-10-17T08:10:32.233Z,16.00
2022-10-17T08:12:59.986Z,15.97
2022-10-17T08:15:31.002Z,15.99
2022-10-17T08:18:00.160Z,15.92
2022-10-17T08:20:27.873Z,15.94
2022-10-17T08:22:56.220Z,15.95
2022-10-17T08:25:25.438Z,15.98
2022-10-17T08:27:53.037Z,15.99
2022-10-17T08:30:20.681Z,16.00
2022-10-17T08:32:48.356Z,16.02
2022-10-17T08:35:16.122Z,16.03
2022-10-17T08:37:43.651Z,16.11
2022-10-17T08:40:18.289Z,16.06
2022-10-17T08:43:21.039Z,16.12
2022-10-17T08:45:55.456Z,16.12
2022-10-17T08:48:26.580Z,16.16
2022-10-17T08:50:57.522Z,16.17
2022-10-17T08:53:31.050Z,16.17
2022-10-17T08:56:01.662Z,16.18
2022-10-17T08:58:34.134Z,16.20
2022-10-17T09:01:12.050Z,16.20
2022-10-17T09:03:53.670Z,16.21
2022-10-17T09:06:29.830Z,16.21
2022-10-17T09:09:21.937Z,16.23
2022-10-17T09:12:03.825Z,16.26
2022-10-17T09:14:53.773Z,16.29
2022-10-17T09:17:33.829Z,16.29
2022-10-17T09:20:05.922Z,16.32
2022-10-17T09:22:39.649Z,16.33
2022-10-17T09:25:13.528Z,16.34
2022-10-17T09:27:44.283Z,16.35
2022-10-17T09:30:44.075Z,16.35
2022-10-17T09:33:28.085Z,16.35
2022-10-17T09:36:05.093Z,16.34
2022-10-17T09:38:39.932Z,16.34
2022-10-17T09:41:39.162Z,16.33
2022-10-17T09:44:15.498Z,16.32
2022-10-17T09:46:56.753Z,16.33
2022-10-17T09:49:27.233Z,16.37
2022-10-17T09:51:54.872Z,16.35
2022-10-17T09:54:26.541Z,16.38
2022-10-17T09:57:03.270Z,16.41
2022-10-17T09:59:33.021Z,16.44
2022-10-17T10:02:15.293Z,16.49
2022-10-17T10:05:08.832Z,16.52
2022-10-17T10:07:39.009Z,16.53
2022-10-17T10:10:09.507Z,16.52
2022-10-17T10:12:40.468Z,16.53
2022-10-17T10:15:38.667Z,16.56
2022-10-17T10:21:09.146Z,16.59
2022-10-17T10:23:39.996Z,16.61
2022-10-17T10:26:25.804Z,16.61
2022-10-17T10:28:59.873Z,16.61
2022-10-17T10:31:34.540Z,16.60
2022-10-17T10:34:16.104Z,16.61
2022-10-17T10:36:46.652Z,16.60
2022-10-17T10:39:44.685Z,16.61
2022-10-17T10:42:25.493Z,16.61
2022-10-17T10:44:55.364Z,16.63
2022-10-17T10:47:26.230Z,16.65
2022-10-17T10:50:10.242Z,16.69
2022-10-17T10:52:44.792Z,16.68
2022-10-17T10:55:22.392Z,16.71
2022-10-17T10:57:54.121Z,16.73
2022-10-17T11:00:26.747Z,16.74
2022-10-17T11:03:03.829Z,16.78
2022-10-17T11:05:42.889Z,16.82
2022-10-17T11:08:20.342Z,16.86
2022-10-17T11:11:00.435Z,16.88
2022-10-17T11:13:33.001Z,16.91
2022-10-17T11:16:08.509Z,16.91
2022-10-17T11:18:44.037Z,16.95
2022-10-17T11:21:17.745Z,16.97
2022-10-17T11:23:48.679Z,16.96
2022-10-17T11:26:26.717Z,16.96
2022-10-17T11:28:54.820Z,16.93
2022-10-17T11:31:24.328Z,16.90
2022-10-17T11:33:57.100Z,16.88
2022-10-17T11:36:31.193Z,16.85
2022-10-17T11:39:04.393Z,16.83
2022-10-17T11:41:38.891Z,16.80
2022-10-17T11:44:14.356Z,16.82
2022-10-17T11:46:45.543Z,16.77
2022-10-17T11:49:20.054Z,16.79
2022-10-17T11:52:00.409Z,16.80
2022-10-17T11:54:34.992Z,16.83
2022-10-17T11:57:15.843Z,16.85
2022-10-17T11:59:58.402Z,16.86
2022-10-17T12:02:37.739Z,16.88
2022-10-17T12:05:19.887Z,16.91
2022-10-17T12:07:59.912Z,16.95
2022-10-17T12:10:38.096Z,16.97
2022-10-17T12:13:42.802Z,16.99
2022-10-17T12:16:50.820Z,17.05
2022-10-17T12:19:39.461Z,17.07
2022-10-17T12:22:20.211Z,17.09
2022-10-17T12:24:57.558Z,17.12
2022-10-17T12:27:34.164Z,17.10
2022-10-17T12:30:04.100Z,17.10
2022-10-17T12:32:46.881Z,17.11
2022-10-17T12:35:22.957Z,17.12
2022-10-17T12:38:15.406Z,17.13
2022-10-17T12:40:58.194Z,17.13
2022-10-17T12:43:53.575Z,17.13
2022-10-17T12:46:57.035Z,17.14
2022-10-17T12:49:51.108Z,17.13
2022-10-17T12:52:37.737Z,17.10
2022-10-17T12:55:14.006Z,17.09
2022-10-17T12:57:49.979Z,17.09
2022-10-17T13:00:23.903Z,17.09
2022-10-17T13:02:55.261Z,17.08
2022-10-17T13:05:29.340Z,17.10
2022-10-17T13:07:58.933Z,17.09
2022-10-17T13:10:29.904Z,17.11
2022-10-17T13:13:07.202Z,17.15
2022-10-17T13:15:36.390Z,17.18
2022-10-17T13:18:04.634Z,17.19
2022-10-17T13:20:33.388Z,17.17
2022-10-17T13:23:01.203Z,17.18
2022-10-17T13:25:29.251Z,17.19
2022-10-17T13:28:13.936Z,17.24
2022-10-17T13:30:49.369Z,17.28
2022-10-17T13:33:29.892Z,17.31
2022-10-17T13:36:01.312Z,17.31
2022-10-17T13:38:34.133Z,17.33
2022-10-17T13:41:33.623Z,17.38
2022-10-17T13:43:55.155Z,17.41
2022-10-17T13:46:37.336Z,17.42
2022-10-17T13:49:13.812Z,17.41
2022-10-17T13:51:45.877Z,17.43
2022-10-17T13:54:31.605Z,17.43
2022-10-17T13:57:00.864Z,17.42
2022-10-17T13:59:37.074Z,17.43
2022-10-17T14:02:05.964Z,17.44
2022-10-17T14:04:57.781Z,17.45
2022-10-17T14:07:29.292Z,17.46
2022-10-17T14:09:59.189Z,17.46
2022-10-17T14:12:26.742Z,17.44
2022-10-17T14:15:10.118Z,17.43
2022-10-17T14:17:38.926Z,17.44
2022-10-17T14:20:47.867Z,17.47
2022-10-17T14:23:20.817Z,17.46
2022-10-17T14:25:43.697Z,17.47
2022-10-17T14:28:16.886Z,17.48
2022-10-17T14:31:03.229Z,17.51
2022-10-17T14:33:35.393Z,17.54
2022-10-17T14:36:06.255Z,17.58
2022-10-17T14:38:35.925Z,17.67
2022-10-17T14:41:40.832Z,17.80
2022-10-17T14:44:00.234Z,17.92
2022-10-17T14:46:29.752Z,18.05
2022-10-17T14:49:03.200Z,18.14
2022-10-17T14:51:40.033Z,18.21
2022-10-17T14:54:23.315Z,18.24
2022-10-17T14:56:53.272Z,18.22
2022-10-17T14:59:51.416Z,18.19
2022-10-17T15:02:13.116Z,18.11
2022-10-17T15:04:40.788Z,18.05
2022-10-17T15:07:08.465Z,18.00
2022-10-17T15:09:35.957Z,17.96
2022-10-17T15:12:08.000Z,17.93
2022-10-17T15:14:35.621Z,17.91
2022-10-17T15:17:03.265Z,17.86
2022-10-17T15:19:32.048Z,17.87
2022-10-17T15:21:59.685Z,17.85
2022-10-17T15:24:27.321Z,17.84
2022-10-17T15:26:55.774Z,17.82
2022-10-17T15:29:23.380Z,17.82
2022-10-17T15:31:51.021Z,17.81
2022-10-17T15:34:18.653Z,17.80
2022-10-17T15:36:52.839Z,17.78
2022-10-17T15:39:20.698Z,17.78
2022-10-17T15:41:49.255Z,17.76
2022-10-17T15:44:16.902Z,17.75
2022-10-17T15:46:44.674Z,17.72
2022-10-17T15:49:15.162Z,17.70
2022-10-17T15:51:42.783Z,17.65
2022-10-17T15:56:42.851Z,17.55
2022-10-17T15:59:16.438Z,17.51
2022-10-17T16:01:44.841Z,17.45
2022-10-17T16:04:15.487Z,17.40
2022-10-17T16:06:43.755Z,17.38
2022-10-17T16:09:12.711Z,17.33
2022-10-17T16:11:42.319Z,17.28
2022-10-17T16:14:13.196Z,17.21
2022-10-17T16:16:41.155Z,17.15
2022-10-17T16:19:09.355Z,17.10
2022-10-17T16:21:39.948Z,17.07
2022-10-17T16:24:08.177Z,17.02
2022-10-17T16:26:37.167Z,16.99
2022-10-17T16:29:04.931Z,16.98
2022-10-17T16:31:34.983Z,16.95
2022-10-17T16:34:04.597Z,16.92
2022-10-17T16:36:32.491Z,16.88
2022-10-17T16:39:04.515Z,16.85
2022-10-17T16:41:34.045Z,16.83
2022-10-17T16:44:05.481Z,16.78
2022-10-17T16:46:34.597Z,16.75
2022-10-17T16:49:02.273Z,16.69
2022-10-17T16:51:31.217Z,16.66
2022-10-17T16:54:00.229Z,16.63
2022-10-17T16:56:29.778Z,16.59
2022-10-17T16:58:57.591Z,16.56
2022-10-17T17:01:29.197Z,16.53
2022-10-17T17:03:57.584Z,16.50
2022-10-17T17:06:27.096Z,16.48
2022-10-17T17:08:55.862Z,16.43
2022-10-17T17:11:25.066Z,16.39
2022-10-17T17:13:53.080Z,16.35
2022-10-17T17:16:22.926Z,16.29
2022-10-17T17:18:56.050Z,16.26
2022-10-17T17:21:24.379Z,16.22
2022-10-17T17:23:52.638Z,16.18
2022-10-17T17:26:21.665Z,16.16
2022-10-17T17:28:50.622Z,16.16
2022-10-17T17:31:20.283Z,16.16
2022-10-17T17:33:48.116Z,16.15
2022-10-17T17:36:19.697Z,16.13
2022-10-17T17:38:48.581Z,16.11
2022-10-17T17:41:19.248Z,16.09
2022-10-17T17:43:48.125Z,16.07
2022-10-17T17:46:18.171Z,16.07
2022-10-17T17:48:47.212Z,16.06
2022-10-17T17:51:19.707Z,16.07
2022-10-17T17:53:48.443Z,16.05
2022-10-17T17:56:17.910Z,16.03
2022-10-17T17:58:48.229Z,16.03
2022-10-17T18:01:20.273Z,16.01
2022-10-17T18:03:49.228Z,15.98
2022-10-17T18:06:18.924Z,15.95
2022-10-17T18:08:47.996Z,15.96
2022-10-17T18:11:18.341Z,15.97
2022-10-17T18:13:49.085Z,15.96
2022-10-17T18:16:16.771Z,15.94
2022-10-17T18:18:46.044Z,15.92
2022-10-17T18:21:15.025Z,15.90
2022-10-17T18:23:45.937Z,15.87
2022-10-17T18:26:15.021Z,15.83
2022-10-17T18:28:44.463Z,15.85
2022-10-17T18:31:15.201Z,15.83
2022-10-17T18:33:44.576Z,15.84
2022-10-17T18:36:14.868Z,15.83
2022-10-17T18:38:44.529Z,15.81
2022-10-17T18:41:15.042Z,15.79
2022-10-17T18:43:44.234Z,15.77
2022-10-17T18:46:14.836Z,15.77
2022-10-17T18:48:45.378Z,15.75
2022-10-17T18:51:14.378Z,15.73
2022-10-17T18:53:44.478Z,15.71
2022-10-17T18:56:12.871Z,15.71
2022-10-17T18:58:41.530Z,15.70
2022-10-17T19:01:11.739Z,15.71
2022-10-17T19:03:39.636Z,15.73
2022-10-17T19:06:09.141Z,15.73
2022-10-17T19:08:37.786Z,15.71
2022-10-17T19:11:08.165Z,15.71
2022-10-17T19:13:36.257Z,15.70
2022-10-17T19:16:06.800Z,15.67
2022-10-17T19:18:34.889Z,15.65
2022-10-17T19:21:04.048Z,15.65
2022-10-17T19:23:32.249Z,15.67
2022-10-17T19:26:03.704Z,15.67
2022-10-17T19:28:32.818Z,15.67
2022-10-17T19:31:00.990Z,15.67
2022-10-17T19:36:04.222Z,15.67
2022-10-17T19:38:34.090Z,15.67
2022-10-17T19:41:01.883Z,15.65
2022-10-17T19:43:29.344Z,15.64
2022-10-17T19:46:00.658Z,15.61
2022-10-17T19:48:29.003Z,15.60
2022-10-17T19:50:56.635Z,15.61
2022-10-17T19:53:27.438Z,15.61
2022-10-17T19:55:55.092Z,15.59
2022-10-17T19:58:22.798Z,15.58
2022-10-17T20:00:54.292Z,15.56
2022-10-17T20:03:23.840Z,15.56
2022-10-17T20:05:52.168Z,15.56
2022-10-17T20:08:20.193Z,15.57
2022-10-17T20:10:48.486Z,15.57
2022-10-17T20:13:16.107Z,15.56
2022-10-17T20:15:43.801Z,15.55
2022-10-17T20:18:11.413Z,15.57
2022-10-17T20:20:40.409Z,15.55
2022-10-17T20:23:08.011Z,15.55
2022-10-17T20:25:38.087Z,15.54
2022-10-17T20:28:05.846Z,15.54
2022-10-17T20:30:33.555Z,15.53
2022-10-17T20:33:01.229Z,15.49
2022-10-17T20:35:28.978Z,15.48
2022-10-17T20:37:58.318Z,15.46
2022-10-17T20:40:41.235Z,15.47
2022-10-17T20:43:09.468Z,15.48
2022-10-17T20:45:51.200Z,15.49
2022-10-17T20:48:19.317Z,15.47
2022-10-17T20:50:46.947Z,15.48
2022-10-17T20:53:36.915Z,15.46
2022-10-17T20:56:06.345Z,15.48
2022-10-17T20:58:34.003Z,15.49
2022-10-17T21:01:07.007Z,15.50
2022-10-17T21:03:37.102Z,15.50
2022-10-17T21:06:08.845Z,15.49
2022-10-17T21:08:37.900Z,15.49
2022-10-17T21:11:13.307Z,15.50
2022-10-17T21:13:41.177Z,15.52
2022-10-17T21:16:10.743Z,15.53
2022-10-17T21:18:38.961Z,15.54
2022-10-17T21:21:12.523Z,15.53
2022-10-17T21:23:42.653Z,15.53
2022-10-17T21:26:12.320Z,15.50
2022-10-17T21:28:41.029Z,15.48
2022-10-17T21:31:11.198Z,15.48
2022-10-17T21:33:39.125Z,15.46
2022-10-17T21:36:07.480Z,15.43
2022-10-17T21:38:36.835Z,15.42
2022-10-17T21:41:07.830Z,15.40
2022-10-17T21:43:36.679Z,15.39
2022-10-17T21:46:05.741Z,15.36
2022-10-17T21:48:33.884Z,15.36
2022-10-17T21:51:02.853Z,15.36
2022-10-17T21:53:31.025Z,15.34
2022-10-17T21:56:00.569Z,15.32
2022-10-17T21:58:30.001Z,15.29
2022-10-17T22:01:05.573Z,15.26
2022-10-17T22:03:34.480Z,15.25
2022-10-17T22:06:13.055Z,15.23
2022-10-17T22:08:50.964Z,15.21
2022-10-17T22:11:20.058Z,15.20
2022-10-17T22:13:49.406Z,15.18
2022-10-17T22:16:17.622Z,15.17
2022-10-17T22:18:45.201Z,15.17
2022-10-17T22:21:14.573Z,15.16
2022-10-17T22:23:42.566Z,15.14
2022-10-17T22:26:11.063Z,15.12
2022-10-17T22:28:40.758Z,15.08
2022-10-17T22:31:10.424Z,15.05
2022-10-17T22:33:39.827Z,15.03
2022-10-17T22:36:09.197Z,15.02
2022-10-17T22:38:37.418Z,15.01
2022-10-17T22:41:05.581Z,15.00
2022-10-17T22:43:34.047Z,14.99
2022-10-17T22:46:03.499Z,14.98
2022-10-17T22:48:32.538Z,14.96
2022-10-17T22:51:00.999Z,14.93
2022-10-17T22:53:29.995Z,14.92
2022-10-17T22:55:59.538Z,14.91
2022-10-17T22:58:28.337Z,14.91
2022-10-17T23:00:56.743Z,14.91
2022-10-17T23:03:25.638Z,14.91
2022-10-17T23:05:55.303Z,14.91
2022-10-17T23:08:23.061Z,14.90
2022-10-17T23:10:50.529Z,14.89
2022-10-17T23:13:18.711Z,14.88
2022-10-17T23:15:46.667Z,14.89
2022-10-17T23:18:14.537Z,14.87
2022-10-17T23:20:42.171Z,14.85
2022-10-17T23:23:11.175Z,14.83
2022-10-17T23:25:38.829Z,14.82
2022-10-17T23:28:07.346Z,14.80
2022-10-17T23:30:35.193Z,14.76
2022-10-17T23:33:02.652Z,14.72
2022-10-17T23:35:30.449Z,14.71
2022-10-17T23:37:57.905Z,14.69
2022-10-17T23:40:28.013Z,14.68
2022-10-17T23:42:55.679Z,14.67
2022-10-17T23:45:23.331Z,14.67
2022-10-17T23:47:51.026Z,14.67
2022-10-17T23:50:18.930Z,14.65
2022-10-17T23:52:46.577Z,14.64
2022-10-17T23:55:14.205Z,14.64
2022-10-17T23:57:43.280Z,14.62
